Time;durP1;ratioP1;P1;durP2;ratioP2;P2;SDS_P1;SDS_P2;PMS_P1;PMS_P2;Temp;Humidity;BMP_temperature;BMP_pressure;BME280_temperature;BME280_humidity;BME280_pressure;Samples;Min_cycle;Max_cycle;Signal;HPM_P1;HPM_P2
2022/06/17 00:00:56;;;;;;;;;14.25;13.25;;;;;25.66;36.99;101927.25;5069539;28;45560;-62
2022/06/17 00:03:25;;;;;;;;;14.25;11.75;;;;;25.65;36.67;101919.31;5072151;28;45278;-62
2022/06/17 00:05:51;;;;;;;;;16.25;13.50;;;;;25.63;37.30;101921.34;5065929;28;45168;-62
2022/06/17 00:08:22;;;;;;;;;15.00;10.50;;;;;25.61;36.93;101913.41;5062081;28;45497;-62
2022/06/17 00:10:47;;;;;;;;;15.50;13.75;;;;;25.58;36.96;101917.25;5063259;28;45220;-62
2022/06/17 00:13:18;;;;;;;;;12.75;12.75;;;;;25.56;37.13;101916.56;5062968;28;46097;-62
2022/06/17 00:15:45;;;;;;;;;13.25;11.00;;;;;25.54;37.26;101906.97;5062746;28;45632;-62
2022/06/17 00:18:12;;;;;;;;;14.50;12.50;;;;;25.52;37.33;101912.53;5060978;28;45526;-62
2022/06/17 00:20:39;;;;;;;;;15.00;14.00;;;;;25.51;37.36;101907.25;5063205;28;45461;-62
2022/06/17 00:23:10;;;;;;;;;12.25;12.00;;;;;25.47;37.15;101904.06;5062964;28;45300;-62
2022/06/17 00:25:37;;;;;;;;;12.00;11.25;;;;;25.46;37.57;101913.16;5062860;28;45280;-62
2022/06/17 00:28:05;;;;;;;;;7.50;7.50;;;;;25.44;37.60;101909.78;5063131;28;45240;-62
2022/06/17 00:30:32;;;;;;;;;14.00;14.00;;;;;25.41;37.70;101909.22;5063029;28;45221;-62
2022/06/17 00:33:01;;;;;;;;;13.00;10.25;;;;;25.37;37.16;101910.56;5063114;28;46184;-62
2022/06/17 00:35:34;;;;;;;;;11.50;11.50;;;;;25.32;37.58;101913.72;5062681;28;45251;-62
2022/06/17 00:38:01;;;;;;;;;13.25;11.00;;;;;25.28;37.86;101917.78;5063070;28;45473;-62
2022/06/17 00:40:29;;;;;;;;;13.25;12.00;;;;;25.26;37.41;101912.50;5062807;28;45479;-62
2022/06/17 00:42:57;;;;;;;;;9.50;9.50;;;;;25.21;37.69;101914.84;5062928;28;45241;-62
2022/06/17 00:45:28;;;;;;;;;10.75;10.25;;;;;25.18;37.68;101906.22;5062815;28;45288;-62
2022/06/17 00:48:01;;;;;;;;;12.75;11.25;;;;;25.17;37.97;101901.81;5063095;28;45269;-62
2022/06/17 00:50:37;;;;;;;;;15.00;12.00;;;;;25.13;38.04;101906.72;5062624;28;45245;-62
2022/06/17 00:53:16;;;;;;;;;11.50;10.75;;;;;25.14;37.94;101903.00;5062692;28;45335;-62
2022/06/17 00:55:50;;;;;;;;;14.00;12.75;;;;;25.13;38.06;101912.09;5062544;28;45367;-62
2022/06/17 00:58:22;;;;;;;;;13.25;11.25;;;;;25.10;38.38;101909.69;5062765;28;45201;-63
2022/06/17 01:00:51;;;;;;;;;10.50;10.50;;;;;25.11;38.40;101914.09;5062769;28;45546;-62
2022/06/17 01:03:21;;;;;;;;;10.00;10.00;;;;;25.10;38.41;101914.25;5061989;28;46224;-62
2022/06/17 01:05:51;;;;;;;;;11.25;11.25;;;;;25.08;38.07;101918.97;5062547;28;45323;-62
2022/06/17 01:11:13;;;;;;;;;12.75;9.75;;;;;25.07;37.94;101917.28;5062562;28;45778;-62
2022/06/17 01:13:40;;;;;;;;;10.00;10.00;;;;;25.06;38.15;101916.44;5062510;28;46003;-62
2022/06/17 01:16:06;;;;;;;;;15.00;12.00;;;;;25.07;38.02;101919.97;5063021;28;45244;-62
2022/06/17 01:18:37;;;;;;;;;12.00;11.00;;;;;25.07;38.34;101918.13;5062194;28;45228;-62
2022/06/17 01:21:19;;;;;;;;;13.00;10.75;;;;;25.04;38.76;101927.38;5062772;28;45429;-62
2022/06/17 01:23:46;;;;;;;;;11.75;11.00;;;;;24.98;38.20;101925.25;5062145;28;45209;-63
2022/06/17 01:26:12;;;;;;;;;13.25;11.75;;;;;24.94;38.24;101926.56;5062201;28;45416;-62
2022/06/17 01:28:38;;;;;;;;;14.25;12.50;;;;;24.93;38.96;101922.19;5060890;28;45314;-62
2022/06/17 01:31:07;;;;;;;;;14.25;12.25;;;;;24.91;38.56;101921.50;5062378;28;45446;-62
2022/06/17 01:33:36;;;;;;;;;14.75;14.50;;;;;24.86;38.44;101925.66;5061843;28;45308;-62
2022/06/17 01:36:23;;;;;;;;;12.75;11.50;;;;;24.83;38.53;101931.34;5062331;28;45176;-62
2022/06/17 01:38:52;;;;;;;;;11.25;10.00;;;;;24.79;39.11;101934.34;5062058;28;45343;-62
2022/06/17 01:41:21;;;;;;;;;11.75;11.25;;;;;24.78;39.11;101927.28;5062075;28;45335;-63
2022/06/17 01:43:56;;;;;;;;;14.00;13.50;;;;;24.76;38.75;101931.13;5061870;28;45434;-62
2022/06/17 01:46:42;;;;;;;;;12.75;11.50;;;;;24.73;39.38;101932.28;5061848;28;45287;-62
2022/06/17 01:49:37;;;;;;;;;12.50;11.50;;;;;24.70;39.26;101935.28;5061692;28;45330;-63
2022/06/17 01:52:02;;;;;;;;;14.75;13.00;;;;;24.64;39.37;101938.59;5053308;28;45331;-62
2022/06/17 01:54:34;;;;;;;;;12.75;12.75;;;;;24.61;39.31;101954.22;5061670;28;45379;-63
2022/06/17 01:57:03;;;;;;;;;12.50;11.75;;;;;24.55;39.14;101955.66;5061708;28;45344;-62
2022/06/17 01:59:41;;;;;;;;;16.75;12.25;;;;;24.53;39.22;101949.59;5061441;28;45261;-63
2022/06/17 02:02:11;;;;;;;;;11.75;11.75;;;;;24.49;39.61;101943.69;5061687;28;45450;-63
2022/06/17 02:04:45;;;;;;;;;12.75;12.00;;;;;24.48;39.14;101949.19;5061552;28;45587;-63
2022/06/17 02:07:27;;;;;;;;;12.25;12.00;;;;;24.46;39.77;101965.50;5061582;28;45410;-63
2022/06/17 02:09:52;;;;;;;;;13.25;12.75;;;;;24.42;39.84;101969.53;5061617;28;45366;-62
2022/06/17 02:12:20;;;;;;;;;13.25;11.50;;;;;24.42;39.49;101971.38;5061451;28;45248;-63
2022/06/17 02:14:48;;;;;;;;;12.25;12.25;;;;;24.40;40.00;101965.28;5061459;28;45657;-62
2022/06/17 02:17:14;;;;;;;;;13.00;13.00;;;;;24.39;39.58;101964.41;5068858;28;45354;-63
2022/06/17 02:19:43;;;;;;;;;13.75;10.25;;;;;24.34;40.01;101966.75;5061318;28;45267;-62
2022/06/17 02:22:17;;;;;;;;;12.75;12.75;;;;;24.31;40.00;101971.53;5061482;28;45227;-62
2022/06/17 02:24:44;;;;;;;;;16.75;12.00;;;;;24.27;40.33;101984.47;5061275;28;46787;-62
2022/06/17 02:27:12;;;;;;;;;16.25;13.25;;;;;24.24;39.83;101971.28;5060849;28;45291;-62
2022/06/17 02:29:40;;;;;;;;;13.00;12.50;;;;;24.24;39.87;101976.66;5061277;28;45347;-62
2022/06/17 02:32:08;;;;;;;;;12.50;11.75;;;;;24.24;39.85;101977.50;5061352;28;45383;-63
2022/06/17 02:34:33;;;;;;;;;11.25;9.50;;;;;24.23;40.30;101972.28;5060882;28;46143;-62
2022/06/17 02:37:19;;;;;;;;;14.25;11.75;;;;;24.23;40.11;101977.66;5060970;28;45349;-62
2022/06/17 02:39:50;;;;;;;;;13.25;11.75;;;;;24.20;40.68;101977.97;5060582;28;45392;-62
2022/06/17 02:42:25;;;;;;;;;12.00;12.00;;;;;24.17;40.75;101975.56;5060939;28;45412;-62
2022/06/17 02:45:00;;;;;;;;;10.75;10.50;;;;;24.16;40.69;101971.19;5060900;28;45407;-62
2022/06/17 02:47:26;;;;;;;;;11.50;11.50;;;;;24.15;40.71;101983.78;5060983;28;45426;-62
2022/06/17 02:49:52;;;;;;;;;10.75;10.75;;;;;24.11;40.39;101981.56;5060607;28;45447;-62
2022/06/17 02:52:38;;;;;;;;;12.50;12.00;;;;;24.09;40.78;101984.38;5061033;28;45181;-62
2022/06/17 02:55:18;;;;;;;;;13.75;12.00;;;;;24.08;41.05;101984.53;5060856;28;45193;-62
2022/06/17 02:57:47;;;;;;;;;14.50;13.00;;;;;24.07;41.07;101978.31;5060711;28;45410;-62
2022/06/17 03:00:20;;;;;;;;;11.50;10.50;;;;;24.05;40.88;101977.63;5060874;28;45230;-62
2022/06/17 03:03:01;;;;;;;;;11.00;11.00;;;;;24.03;41.09;101976.94;5060552;28;45606;-63
2022/06/17 03:05:31;;;;;;;;;9.75;9.75;;;;;24.04;41.21;101969.69;5060847;28;45394;-63
2022/06/17 03:07:59;;;;;;;;;14.75;12.00;;;;;24.04;41.33;101977.78;5060944;28;45301;-62
2022/06/17 03:10:31;;;;;;;;;13.00;13.00;;;;;24.03;41.26;101976.09;5060562;28;45363;-62
2022/06/17 03:13:05;;;;;;;;;12.75;12.75;;;;;24.00;41.49;101969.13;5060894;28;45466;-62
2022/06/17 03:15:31;;;;;;;;;12.75;12.00;;;;;24.01;40.94;101960.06;5060646;28;45273;-62
2022/06/17 03:17:57;;;;;;;;;13.00;12.00;;;;;24.00;40.87;101958.38;5068666;28;45355;-62
2022/06/17 03:20:34;;;;;;;;;14.00;13.25;;;;;23.99;41.42;101958.53;5060511;28;45235;-63
2022/06/17 03:23:11;;;;;;;;;9.25;9.25;;;;;23.96;41.06;101959.69;5060967;28;45434;-62
2022/06/17 03:25:57;;;;;;;;;12.00;12.00;;;;;23.94;41.51;101945.53;5060522;28;45338;-63
2022/06/17 03:28:34;;;;;;;;;13.75;13.00;;;;;23.90;41.68;101949.50;5060461;28;45261;-62
2022/06/17 03:31:11;;;;;;;;;11.75;11.75;;;;;23.87;41.15;101952.50;5060664;28;45319;-63
2022/06/17 03:33:44;;;;;;;;;11.00;11.00;;;;;23.87;41.41;101955.19;5060321;28;45454;-62
2022/06/17 03:36:20;;;;;;;;;12.75;11.00;;;;;23.80;41.79;101943.31;5060373;28;45325;-62
2022/06/17 03:38:53;;;;;;;;;11.25;11.25;;;;;23.77;41.42;101935.50;5060503;28;45378;-63
2022/06/17 03:41:21;;;;;;;;;14.50;13.75;;;;;23.76;41.53;101931.97;5060451;28;45502;-62
2022/06/17 03:44:07;;;;;;;;;14.50;12.50;;;;;23.75;41.80;101924.91;5060448;28;45640;-63
2022/06/17 03:46:43;;;;;;;;;12.25;12.00;;;;;23.73;41.49;101907.22;5060143;28;45231;-63
2022/06/17 03:49:37;;;;;;;;;14.00;13.25;;;;;23.68;41.77;101926.50;5060107;28;45765;-62
2022/06/17 03:52:14;;;;;;;;;14.50;14.25;;;;;23.61;41.90;101947.75;5059277;28;45547;-63
2022/06/17 03:54:40;;;;;;;;;14.00;14.00;;;;;23.59;42.05;101973.94;5063924;28;45149;-63
2022/06/17 03:57:10;;;;;;;;;13.25;13.25;;;;;23.55;41.92;101969.84;5063492;28;45546;-62
2022/06/17 03:59:37;;;;;;;;;14.50;14.50;;;;;23.56;42.25;101968.84;5063531;28;45352;-63
2022/06/17 04:02:12;;;;;;;;;11.25;11.25;;;;;23.57;42.23;101977.75;5063560;28;45325;-63
2022/06/17 04:04:41;;;;;;;;;16.75;14.75;;;;;23.56;42.59;101968.00;5063460;28;45653;-63
2022/06/17 04:07:11;;;;;;;;;17.25;15.00;;;;;23.56;42.32;101979.59;5063231;28;45504;-63
2022/06/17 04:09:38;;;;;;;;;15.50;12.25;;;;;23.54;42.19;101978.03;5063643;28;45400;-63
2022/06/17 04:12:19;;;;;;;;;16.25;14.00;;;;;23.54;42.78;101973.53;5063415;28;45402;-63
2022/06/17 04:14:47;;;;;;;;;14.50;14.00;;;;;23.53;42.45;101970.97;5063710;28;45308;-63
2022/06/17 04:17:35;;;;;;;;;9.75;7.25;;;;;23.55;42.34;101975.22;5070526;28;45548;-63
2022/06/17 04:20:31;;;;;;;;;19.50;13.50;;;;;23.55;42.46;101971.69;5062839;27;45287;-62
2022/06/17 04:23:05;;;;;;;;;13.75;13.75;;;;;23.55;42.28;101969.00;5063353;28;45367;-63
2022/06/17 04:25:37;;;;;;;;;14.00;13.25;;;;;23.55;42.28;101959.09;5063297;28;45227;-63
2022/06/17 04:28:08;;;;;;;;;15.75;13.75;;;;;23.55;42.99;101963.63;5063224;28;45268;-63
2022/06/17 04:30:40;;;;;;;;;13.00;13.00;;;;;23.55;42.73;101964.47;5050380;28;45505;-63
2022/06/17 04:33:26;;;;;;;;;16.25;14.25;;;;;23.55;43.07;101966.31;5062753;28;45226;-62
2022/06/17 04:36:09;;;;;;;;;15.50;14.25;;;;;23.55;43.04;101964.47;5063274;28;45267;-63
2022/06/17 04:39:06;;;;;;;;;16.00;15.75;;;;;23.56;42.74;101962.63;5063080;28;45181;-62
2022/06/17 04:41:37;;;;;;;;;15.50;12.25;;;;;23.56;42.77;101971.53;5051327;28;45569;-63
2022/06/17 04:44:05;;;;;;;;;16.00;14.00;;;;;23.54;42.71;101972.66;5063150;28;45287;-63
2022/06/17 04:46:47;;;;;;;;;14.00;13.50;;;;;23.52;42.89;101974.66;5063097;28;45308;-63
2022/06/17 04:49:19;;;;;;;;;18.75;15.75;;;;;23.50;42.90;101976.66;5062456;28;45586;-63
2022/06/17 04:51:46;;;;;;;;;63.00;49.25;;;;;23.51;43.08;101979.19;5062783;28;45247;-62
2022/06/17 04:54:12;;;;;;;;;22.75;17.00;;;;;23.54;43.68;101973.53;5061417;28;45321;-62
2022/06/17 04:56:42;;;;;;;;;16.00;15.00;;;;;23.58;43.36;101974.91;5064914;28;45544;-63
2022/06/17 04:59:30;;;;;;;;;18.50;14.75;;;;;23.62;43.48;101980.88;5062565;28;45776;-63
2022/06/17 05:01:57;;;;;;;;;26.75;23.25;;;;;23.63;43.09;101987.97;5062404;28;45248;-63
2022/06/17 05:04:23;;;;;;;;;19.25;16.75;;;;;23.64;43.19;101984.28;5062205;28;45391;-62
2022/06/17 05:06:49;;;;;;;;;18.50;17.00;;;;;23.64;43.33;101982.44;5062630;28;45224;-63
2022/06/17 05:09:22;;;;;;;;;17.00;16.25;;;;;23.67;43.55;101981.28;5065374;27;45596;-63
2022/06/17 05:11:53;;;;;;;;;22.00;18.75;;;;;23.67;43.21;101974.06;5063281;28;45417;-63
2022/06/17 05:14:37;;;;;;;;;16.75;16.00;;;;;23.68;43.19;101977.59;5062505;28;45329;-63
2022/06/17 05:17:03;;;;;;;;;20.50;15.50;;;;;23.66;43.24;101977.75;5075350;28;45296;-63
2022/06/17 05:19:29;;;;;;;;;17.50;16.00;;;;;23.66;43.51;101975.06;5061994;28;45398;-62
2022/06/17 05:21:54;;;;;;;;;15.00;15.00;;;;;23.71;43.68;101973.81;5065408;28;45345;-63
2022/06/17 05:24:20;;;;;;;;;15.75;14.75;;;;;23.72;43.90;101967.41;5062370;28;45296;-62
2022/06/17 05:26:46;;;;;;;;;16.00;16.00;;;;;23.76;43.62;101968.81;5062144;28;45541;-63
2022/06/17 05:29:11;;;;;;;;;23.75;21.50;;;;;23.80;43.30;101954.94;5070419;27;46085;-61
2022/06/17 05:31:38;;;;;;;;;19.75;16.00;;;;;23.88;43.28;101955.03;5076203;28;45426;-62
2022/06/17 05:34:04;;;;;;;;;19.75;16.25;;;;;23.92;43.54;101953.72;5061793;28;45343;-61
2022/06/17 05:36:30;;;;;;;;;19.75;17.00;;;;;24.01;43.39;101954.66;5071213;28;45363;-64
2022/06/17 05:38:56;;;;;;;;;18.00;14.50;;;;;24.09;43.74;101953.94;5062044;28;45609;-64
2022/06/17 05:41:24;;;;;;;;;20.50;19.00;;;;;24.15;43.13;101948.78;5069959;28;45182;-67
2022/06/17 05:43:50;;;;;;;;;21.75;16.00;;;;;24.21;43.23;101944.66;5061940;28;45393;-64
2022/06/17 05:46:17;;;;;;;;;21.25;17.25;;;;;24.25;43.48;101948.75;5068475;28;45585;-63
2022/06/17 05:48:42;;;;;;;;;19.50;17.75;;;;;24.30;43.10;101951.84;5061401;28;45404;-63
2022/06/17 05:51:12;;;;;;;;;23.50;18.25;;;;;24.38;43.45;101953.81;5061781;28;45253;-62
2022/06/17 05:53:37;;;;;;;;;19.25;15.75;;;;;24.45;43.23;101955.75;5061819;28;45395;-61
2022/06/17 05:56:03;;;;;;;;;19.50;15.75;;;;;24.50;43.41;101955.31;5061541;28;45636;-61
2022/06/17 05:58:29;;;;;;;;;19.75;17.75;;;;;24.56;43.21;101941.19;5064309;28;45244;-61
2022/06/17 06:00:54;;;;;;;;;20.00;17.00;;;;;24.63;43.46;101952.22;5064476;27;45338;-61
2022/06/17 06:03:23;;;;;;;;;19.00;17.00;;;;;24.72;43.15;101956.69;5061333;28;45246;-61
2022/06/17 06:05:48;;;;;;;;;18.00;15.75;;;;;24.80;43.45;101956.75;5061599;28;45268;-63
2022/06/17 06:08:14;;;;;;;;;17.25;15.50;;;;;24.87;43.23;101957.00;5061576;28;46525;-61
2022/06/17 06:10:40;;;;;;;;;22.25;19.00;;;;;24.97;43.16;101963.16;5069758;28;45449;-61
2022/06/17 06:13:06;;;;;;;;;19.00;13.50;;;;;25.01;43.07;101962.69;5061534;28;45396;-61
2022/06/17 06:15:39;;;;;;;;;17.75;14.00;;;;;25.08;43.22;101962.94;5060606;28;45248;-61
2022/06/17 06:18:06;;;;;;;;;15.50;15.50;;;;;25.16;43.30;101945.97;5068840;28;46271;-61
2022/06/17 06:20:32;;;;;;;;;17.75;16.50;;;;;25.24;42.54;101937.94;5061054;28;45347;-62
2022/06/17 06:22:58;;;;;;;;;15.75;14.25;;;;;25.33;42.84;101937.00;5061020;28;45334;-62
2022/06/17 06:25:24;;;;;;;;;18.75;15.00;;;;;25.44;42.95;101941.31;5061221;28;45390;-62
2022/06/17 06:27:50;;;;;;;;;14.50;11.75;;;;;25.52;42.38;101935.97;5061291;28;46079;-62
2022/06/17 06:30:28;;;;;;;;;12.25;11.00;;;;;25.61;42.32;101935.00;5061173;28;45276;-62
2022/06/17 06:32:59;;;;;;;;;12.00;11.00;;;;;25.69;42.69;101928.81;5061032;28;45453;-61
2022/06/17 06:35:37;;;;;;;;;9.00;9.00;;;;;25.74;41.93;101916.53;5061115;28;45501;-62
2022/06/17 06:38:04;;;;;;;;;10.00;10.00;;;;;25.82;42.30;101918.41;5060935;28;45452;-62
2022/06/17 06:40:29;;;;;;;;;;;;;;;25.89;42.16;101919.47;5063209;28;45383;-62
2022/06/17 06:42:55;;;;;;;;;10.00;8.75;;;;;25.94;41.60;101919.84;5059287;28;45456;-62
2022/06/17 06:45:24;;;;;;;;;12.00;10.25;;;;;26.01;41.53;101923.56;5061063;28;45231;-62
2022/06/17 06:47:52;;;;;;;;;10.00;7.50;;;;;26.10;41.49;101929.84;5060181;28;45395;-62
2022/06/17 06:50:29;;;;;;;;;12.50;10.75;;;;;26.17;41.07;101925.50;5060720;28;45176;-62
2022/06/17 06:52:55;;;;;;;;;10.00;10.00;;;;;26.23;41.39;101921.25;5060850;28;45322;-62
2022/06/17 06:55:21;;;;;;;;;11.25;10.00;;;;;26.29;41.06;101928.72;5060891;28;45164;-62
2022/06/17 06:57:53;;;;;;;;;11.25;10.00;;;;;26.37;40.88;101917.91;5060462;28;46369;-62
2022/06/17 07:00:25;;;;;;;;;9.25;8.50;;;;;26.43;40.85;101914.59;5060663;28;45407;-62
2022/06/17 07:02:51;;;;;;;;;11.00;10.00;;;;;26.49;40.78;101919.34;5060161;28;45393;-62
2022/06/17 07:05:17;;;;;;;;;9.25;9.00;;;;;26.53;40.58;101917.97;5060847;28;45446;-62
2022/06/17 07:07:43;;;;;;;;;10.75;8.00;;;;;26.55;40.52;101926.78;5060392;28;45209;-62
2022/06/17 07:10:12;;;;;;;;;9.00;7.50;;;;;26.60;40.45;101932.53;5060650;28;45827;-62
2022/06/17 07:12:37;;;;;;;;;12.25;8.50;;;;;26.65;40.41;101935.59;5060612;28;45443;-62
2022/06/17 07:15:04;;;;;;;;;12.75;10.25;;;;;26.69;40.48;101945.03;5060554;28;45443;-62
2022/06/17 07:17:30;;;;;;;;;15.75;14.75;;;;;26.73;40.25;101947.41;5067954;28;47629;-62
2022/06/17 07:19:55;;;;;;;;;18.00;16.75;;;;;26.75;40.06;101946.22;5060126;28;45560;-62
2022/06/17 07:22:22;;;;;;;;;13.00;11.50;;;;;26.79;39.78;101936.78;5060608;28;45237;-62
2022/06/17 07:24:48;;;;;;;;;10.00;9.00;;;;;26.82;39.84;101941.84;5060749;28;45262;-62
2022/06/17 07:27:13;;;;;;;;;8.00;7.75;;;;;26.88;39.81;101943.88;5061934;28;46180;-62
2022/06/17 07:29:39;;;;;;;;;14.50;10.25;;;;;26.94;39.52;101939.66;5064090;28;45374;-63
2022/06/17 07:32:04;;;;;;;;;10.00;10.00;;;;;26.97;39.43;101942.88;5064267;28;45383;-62
2022/06/17 07:34:30;;;;;;;;;13.75;9.00;;;;;27.02;39.24;101936.09;5064054;28;45419;-62
2022/06/17 07:39:55;;;;;;;;;12.00;10.00;;;;;27.12;39.21;101942.22;5063796;28;45249;-63
2022/06/17 07:42:23;;;;;;;;;11.25;9.00;;;;;27.11;39.02;101957.59;5064088;28;45444;-62
2022/06/17 07:44:48;;;;;;;;;10.00;10.00;;;;;27.14;38.74;101965.38;5062295;28;45578;-62
2022/06/17 07:47:16;;;;;;;;;10.50;9.75;;;;;27.12;39.05;101967.41;5063506;28;45204;-62
2022/06/17 07:49:42;;;;;;;;;11.75;8.00;;;;;27.15;38.81;101966.22;5063040;28;45375;-62
2022/06/17 07:52:08;;;;;;;;;9.75;8.50;;;;;27.20;38.97;101974.69;5063593;28;45379;-62
2022/06/17 07:54:34;;;;;;;;;12.25;10.25;;;;;27.26;38.72;101974.84;5063435;28;45276;-62
2022/06/17 07:56:59;;;;;;;;;12.00;10.25;;;;;27.35;38.59;101981.09;5063411;28;45310;-63
2022/06/17 07:59:25;;;;;;;;;9.50;9.50;;;;;27.38;38.68;101980.75;5063598;28;45415;-63
2022/06/17 08:01:51;;;;;;;;;15.00;12.00;;;;;27.45;38.41;101994.44;5063788;28;45330;-62
2022/06/17 08:04:17;;;;;;;;;16.00;10.75;;;;;27.48;38.56;101986.81;5063212;28;45331;-62
2022/06/17 08:06:49;;;;;;;;;11.00;10.00;;;;;27.58;38.52;101997.47;5063471;28;46350;-63
2022/06/17 08:09:15;;;;;;;;;15.25;13.00;;;;;27.63;38.37;101991.53;5063156;28;45319;-63
2022/06/17 08:11:40;;;;;;;;;15.00;13.50;;;;;27.69;38.50;101985.47;5063529;28;45388;-62
2022/06/17 08:14:06;;;;;;;;;32.50;29.25;;;;;27.74;38.15;101994.75;5063102;28;45590;-62
2022/06/17 08:16:31;;;;;;;;;34.25;32.25;;;;;27.77;38.14;101997.13;5069919;28;45296;-63
2022/06/17 08:18:57;;;;;;;;;30.75;26.75;;;;;27.77;38.04;101997.13;5064252;28;45407;-62
2022/06/17 08:21:22;;;;;;;;;12.00;10.50;;;;;27.82;38.14;101991.19;5063476;28;45265;-63
2022/06/17 08:23:48;;;;;;;;;10.25;10.00;;;;;27.85;37.80;101998.94;5063409;28;45265;-63
2022/06/17 08:26:13;;;;;;;;;11.50;11.25;;;;;27.90;37.94;101996.59;5063181;28;45841;-62
2022/06/17 08:28:39;;;;;;;;;13.50;10.00;;;;;27.94;37.80;101987.06;5062877;28;45236;-62
2022/06/17 08:31:04;;;;;;;;;11.75;10.25;;;;;28.00;37.68;101986.38;5063423;28;45175;-62
2022/06/17 08:33:30;;;;;;;;;9.75;9.75;;;;;28.04;37.58;101985.03;5062983;28;45463;-63
2022/06/17 08:36:06;;;;;;;;;9.25;9.25;;;;;28.09;37.44;101976.34;5063327;28;45262;-62
2022/06/17 08:38:34;;;;;;;;;10.00;9.50;;;;;28.13;37.35;101977.72;5062348;28;45227;-62
2022/06/17 08:41:22;;;;;;;;;9.75;9.50;;;;;28.17;36.95;101986.31;5063063;28;45336;-62
2022/06/17 08:44:28;;;;;;;;;13.00;13.00;;;;;28.23;37.32;101967.50;5063160;28;45218;-63
2022/06/17 08:46:56;;;;;;;;;12.25;10.00;;;;;28.32;36.90;101971.03;5062837;28;46114;-63
2022/06/17 08:49:40;;;;;;;;;9.25;8.75;;;;;28.38;36.52;101964.06;5062502;28;45219;-62
2022/06/17 08:52:43;;;;;;;;;16.00;9.50;;;;;28.41;36.41;101961.81;5062909;28;45304;-62
2022/06/17 08:55:17;;;;;;;;;10.75;8.50;;;;;28.53;36.40;101965.81;5045143;28;45750;-62
2022/06/17 08:58:01;;;;;;;;;10.25;8.75;;;;;28.60;36.10;101963.25;5062203;28;45336;-63
2022/06/17 09:00:41;;;;;;;;;12.00;9.75;;;;;28.68;36.57;101952.34;5062603;28;45336;-62
2022/06/17 09:03:34;;;;;;;;;12.75;8.75;;;;;28.76;35.92;101960.41;5062420;28;45450;-62
2022/06/17 09:06:13;;;;;;;;;10.25;9.75;;;;;28.85;36.17;101956.63;5062780;28;45259;-63
2022/06/17 09:09:15;;;;;;;;;9.75;9.25;;;;;28.91;36.11;101957.78;5062286;28;45304;-62
2022/06/17 09:11:55;;;;;;;;;8.25;6.00;;;;;28.95;36.06;101950.97;5062358;28;45306;-62
2022/06/17 09:14:36;;;;;;;;;10.75;7.00;;;;;29.00;35.92;101955.88;5062804;28;45331;-62
2022/06/17 09:17:22;;;;;;;;;9.25;8.00;;;;;29.06;35.54;101952.41;5070530;28;45289;-62
2022/06/17 09:19:56;;;;;;;;;9.50;9.00;;;;;29.10;35.09;101953.72;5062140;28;45462;-62
2022/06/17 09:22:28;;;;;;;;;10.00;8.50;;;;;29.15;35.54;101957.59;5062605;28;45232;-62
2022/06/17 09:25:00;;;;;;;;;6.50;6.00;;;;;29.20;35.30;101954.31;5062581;28;45229;-63
2022/06/17 09:27:31;;;;;;;;;10.75;9.25;;;;;29.24;34.96;101955.63;5062595;28;45303;-62
2022/06/17 09:29:57;;;;;;;;;11.00;7.75;;;;;29.30;35.14;101948.63;5062063;28;46128;-62
2022/06/17 09:32:36;;;;;;;;;7.75;7.75;;;;;29.37;34.95;101946.84;5062067;28;45310;-62
2022/06/17 09:35:26;;;;;;;;;10.00;7.75;;;;;29.44;34.72;101942.38;5062260;28;45284;-62
2022/06/17 09:37:58;;;;;;;;;12.50;9.75;;;;;29.51;34.09;101942.50;5062324;28;45383;-62
2022/06/17 09:40:35;;;;;;;;;9.50;8.00;;;;;29.58;34.74;101948.88;5061807;28;45475;-62
2022/06/17 09:43:13;;;;;;;;;9.50;8.00;;;;;29.63;33.90;101955.44;5062210;28;45233;-62
2022/06/17 09:45:53;;;;;;;;;10.75;9.00;;;;;29.64;34.07;101935.41;5061983;28;45336;-62
2022/06/17 09:48:49;;;;;;;;;9.75;9.75;;;;;29.64;34.35;101951.69;5061742;28;45232;-63
2022/06/17 09:51:33;;;;;;;;;12.00;11.50;;;;;29.70;33.97;101947.38;5061482;28;45919;-63
2022/06/17 09:54:29;;;;;;;;;11.50;8.75;;;;;29.77;33.80;101942.88;5061839;28;45294;-62
2022/06/17 09:57:30;;;;;;;;;9.75;8.00;;;;;29.84;33.94;101937.53;5061181;28;45245;-62
2022/06/17 10:00:03;;;;;;;;;8.75;8.00;;;;;29.92;33.98;101940.97;5061961;28;45557;-63
2022/06/17 10:02:46;;;;;;;;;11.75;9.25;;;;;29.97;33.60;101943.16;5060264;28;45890;-63
2022/06/17 10:05:17;;;;;;;;;11.50;7.50;;;;;30.02;33.63;101940.72;5061772;28;45309;-62
2022/06/17 10:08:21;;;;;;;;;4.25;3.00;;;;;30.08;33.40;101944.53;5061744;28;45290;-62
2022/06/17 10:10:56;;;;;;;;;11.00;8.75;;;;;30.16;33.43;101941.72;5039105;28;45703;-62
2022/06/17 10:13:30;;;;;;;;;8.50;8.50;;;;;30.22;33.37;101943.69;5053874;28;46320;-62
2022/06/17 10:19:49;;;;;;;;;6.00;6.00;;;;;30.37;32.98;101946.38;5050570;28;45391;-62
2022/06/17 10:22:43;;;;;;;;;8.75;8.75;;;;;30.41;32.92;101939.50;5060599;28;45276;-62
2022/06/17 10:25:31;;;;;;;;;7.00;7.00;;;;;30.48;32.77;101943.13;5060937;28;45392;-63
2022/06/17 10:28:14;;;;;;;;;9.75;7.50;;;;;30.59;32.51;101931.75;5061227;28;45380;-62
2022/06/17 10:30:55;;;;;;;;;11.25;8.25;;;;;30.68;32.35;101927.06;5048950;28;45269;-63
2022/06/17 10:33:21;;;;;;;;;6.75;6.25;;;;;30.72;32.77;101922.91;5061066;28;45177;-63
2022/06/17 10:35:47;;;;;;;;;10.00;9.00;;;;;30.78;32.53;101922.13;5060974;28;45312;-63
2022/06/17 10:38:24;;;;;;;;;6.50;5.25;;;;;30.83;32.17;101931.41;5060860;28;45434;-62
2022/06/17 10:40:49;;;;;;;;;7.00;7.00;;;;;30.88;32.42;101929.94;5061068;28;46739;-62
2022/06/17 10:43:20;;;;;;;;;6.25;5.25;;;;;30.96;32.19;101933.38;5061101;28;45331;-63
2022/06/17 10:45:46;;;;;;;;;6.00;6.00;;;;;31.01;32.33;101930.91;5061008;28;45331;-62
2022/06/17 10:48:34;;;;;;;;;6.25;6.25;;;;;31.06;32.13;101930.34;5060509;28;45315;-63
2022/06/17 10:51:02;;;;;;;;;9.25;6.25;;;;;31.02;31.94;101935.31;5059686;28;45354;-63
2022/06/17 10:53:49;;;;;;;;;5.75;5.25;;;;;31.06;31.68;101933.91;5061069;28;45166;-63
2022/06/17 10:56:22;;;;;;;;;7.25;7.00;;;;;31.10;31.68;101935.19;5060544;28;46118;-62
2022/06/17 10:59:00;;;;;;;;;6.75;6.75;;;;;31.13;31.74;101921.19;5060663;28;45205;-62
2022/06/17 11:01:45;;;;;;;;;8.75;8.75;;;;;31.15;31.66;101929.16;5060481;28;45301;-62
2022/06/17 11:04:18;;;;;;;;;13.50;9.25;;;;;31.17;31.60;101937.94;5060239;28;45486;-62
2022/06/17 11:07:05;;;;;;;;;6.75;6.50;;;;;31.23;31.48;101944.53;5060912;28;45258;-62
2022/06/17 11:09:46;;;;;;;;;8.00;8.00;;;;;31.30;31.27;101929.94;5060574;28;46045;-62
2022/06/17 11:12:19;;;;;;;;;8.50;8.00;;;;;31.37;31.46;101936.25;5060783;28;45377;-62
2022/06/17 11:14:45;;;;;;;;;8.25;7.50;;;;;31.42;31.27;101924.75;5061248;28;45325;-62
2022/06/17 11:17:29;;;;;;;;;7.00;4.75;;;;;31.46;31.24;101931.50;5068625;28;45461;-62
2022/06/17 11:19:57;;;;;;;;;6.00;5.50;;;;;31.50;31.08;101937.38;5060619;28;45430;-62
2022/06/17 11:22:32;;;;;;;;;6.75;6.75;;;;;31.53;31.14;101937.84;5060690;28;45217;-62
2022/06/17 11:25:02;;;;;;;;;8.50;8.25;;;;;31.57;31.01;101930.91;5060639;28;45240;-62
2022/06/17 11:27:31;;;;;;;;;6.50;6.00;;;;;31.61;31.08;101923.22;5060382;28;45485;-62
2022/06/17 11:30:19;;;;;;;;;11.00;8.00;;;;;31.68;30.91;101924.09;5060048;28;45457;-62
2022/06/17 11:32:45;;;;;;;;;2.75;2.75;;;;;31.74;30.86;101930.59;5060411;28;45303;-62
2022/06/17 11:35:24;;;;;;;;;10.25;7.00;;;;;31.73;30.78;101921.56;5060173;28;45274;-63
2022/06/17 11:37:52;;;;;;;;;7.00;6.25;;;;;31.78;30.45;101921.03;5063282;28;45830;-63
2022/06/17 11:40:25;;;;;;;;;5.00;5.00;;;;;31.82;30.42;101920.38;5069240;27;45353;-63
2022/06/17 11:43:02;;;;;;;;;4.25;4.25;;;;;31.86;30.54;101912.66;5066138;28;45528;-61
2022/06/17 11:45:28;;;;;;;;;4.50;4.50;;;;;31.92;30.45;101912.69;5068096;28;45174;-64
2022/06/17 11:47:59;;;;;;;;;5.75;5.00;;;;;31.99;30.36;101903.69;5067683;28;45521;-62